• Join FlightAware (Why Join?)
  • Login
  • US Flag 
11:08PM EST


 

Airport Tracker/Info


-or-


 

Live Flight TrackerFlight Track Log ✈ SWA193 ✈ 10-Apr-2013 ✈ KFLL - KLAS

Flight Track Log - Related Links

Times and Time Zones

All times are in EDT time to prevent confusion due to time zone crossing. See the SWA193 flight status page for this flight to view local times or setup timezone preferences in your user account.

Time Position Orientation Groundspeed Altitude Reporting Facility
EDT Latitude Longitude Course Direction KTS MPH feet Rate Location/Type
06:58AM 26.0561 -80.1383 85° East 164 189 1,100  Level Miami Center
06:59AM 26.0589 -80.1017 85° East 202 232 2,200 2,100 Climbing Miami Center
07:00AM 26.0767 -80.0558 67° East 225 259 4,300 1,680 Climbing Miami Center
07:01AM 26.1392 -80.0714 347° North 293 337 5,300 2,160 Climbing Miami Center
07:02AM 26.1900 -80.1328 313° West 319 367 8,700 2,100 Climbing Miami Center
07:03AM 26.2425 -80.2039 309° West 301 346 9,500 1,260 Climbing Miami Center
07:04AM 26.2550 -80.3036 278° West 295 339 11,300 2,340 Climbing Miami Center
07:05AM 26.2728 -80.4247 279° West 351 404 14,200 2,520 Climbing Miami Center
07:06AM 26.2869 -80.5317 278° West 388 447 16,400 2,340 Climbing Miami Center
07:07AM 26.3467 -80.6472 300° West 388 447 18,900 2,400 Climbing Miami Center
07:08AM 26.4108 -80.7489 305° West 403 464 21,300 2,280 Climbing Miami Center
07:09AM 26.4789 -80.8556 305° West 411 473 23,500 1,920 Climbing Miami Center
07:10AM 26.5492 -80.9578 308° West 417 480 25,200 1,800 Climbing Miami Center
07:11AM 26.6131 -81.0575 306° West 423 487 27,100 1,800 Climbing Miami Center
07:12AM 26.6811 -81.1647 305° West 428 493 28,900 1,920 Climbing Miami Center
07:13AM 26.7461 -81.2925 300° West 428 493 31,000 1,680 Climbing Miami Center
07:14AM 26.7842 -81.4125 290° West 423 487 32,300 1,380 Climbing Miami Center
07:15AM 26.8200 -81.5350 288° West 418 481 33,800 1,620 Climbing Miami Center
07:16AM 26.8556 -81.6597 288° West 413 475 35,600 1,080 Climbing Miami Center
07:17AM 26.8933 -81.7731 291° West 407 468 36,000 -300 Climbing Miami Center
07:18AM 26.9250 -81.8861 287° West 402 463 35,000 -960 Descending Miami Center
07:19AM 26.9628 -82.0019 290° West 396 456 34,100 -540 Descending Miami Center
07:20AM 26.9961 -82.1200 288° West 396 456 34,000 -60 Descending Miami Center
07:21AM 27.0256 -82.2261 287° West 391 450 34,000  Level Miami Center
07:22AM 27.0628 -82.3467 289° West 405 466 34,000  Level Miami Center
07:23AM 27.0978 -82.4650 288° West 405 466 34,000  Level Miami Center
07:24AM 27.1344 -82.5950 288° West 410 472 34,000  Level Miami Center
07:25AM 27.1694 -82.7156 288° West 410 472 34,000  Level Miami Center
07:26AM 27.2042 -82.8317 289° West 410 472 34,000  Level Miami Center
07:27AM 27.2389 -82.9503 288° West 410 472 34,000  Level Miami Center
07:28AM 27.2700 -83.0569 288° West 410 472 34,000  Level Miami Center
07:29AM 27.3044 -83.1756 288° West 404 465 34,000  Level Miami Center
07:30AM 27.3347 -83.2917 286° West 404 465 34,000  Level Miami Center
07:31AM 27.3711 -83.4083 289° West 404 465 34,000  Level Miami Center
07:32AM 27.4036 -83.5222 288° West 398 458 34,000  Level Miami Center
07:33AM 27.4336 -83.6383 286° West 392 451 34,000  Level Miami Center
07:34AM 27.4658 -83.7525 288° West 387 445 34,000  Level Miami Center
07:35AM 27.5019 -83.8669 290° West 387 445 34,000  Level Miami Center
07:36AM 27.5317 -83.9811 286° West 387 445 34,000  Level Miami Center
07:37AM 27.5636 -84.0978 287° West 387 445 34,000  Level Miami Center
07:38AM 27.5953 -84.2119 287° West 387 445 34,000  Level Miami Center
07:39AM 27.6425 -84.3917 287° West 376 433 34,000 -240 Level Jacksonville Center
07:40AM 27.6808 -84.5047 291° West 382 440 33,500 -1,740 Descending Jacksonville Center
07:41AM 27.7064 -84.6269 283° West 389 448 30,600 -1,800 Descending Jacksonville Center
07:42AM 27.7503 -84.7614 290° West 421 484 30,000 -300 Descending Jacksonville Center
07:43AM 27.7839 -84.8956 286° West 443 510 30,000  Level Jacksonville Center
07:44AM 27.8194 -85.0231 288° West 437 503 30,000  Level Jacksonville Center
07:45AM 27.8569 -85.1481 289° West 437 503 30,000  Level Jacksonville Center
07:46AM 27.8900 -85.2828 286° West 443 510 30,000  Level Jacksonville Center
07:47AM 27.9311 -85.4128 290° West 443 510 30,000  Level Jacksonville Center
07:48AM 27.9703 -85.5453 289° West 443 510 30,000  Level Jacksonville Center
07:49AM 28.0094 -85.6733 289° West 443 510 30,000  Level Jacksonville Center
07:50AM 28.0483 -85.7992 289° West 438 504 30,000  Level Jacksonville Center
07:51AM 28.0869 -85.9319 288° West 445 512 30,000  Level Jacksonville Center
07:52AM 28.1275 -86.0650 289° West 445 512 30,000  Level Jacksonville Center
07:53AM 28.1658 -86.1956 288° West 445 512 30,000  Level Jacksonville Center
07:54AM 28.2064 -86.3286 289° West 445 512 30,000  Level Jacksonville Center
07:55AM 28.2425 -86.4547 288° West 435 501 30,000  Level Jacksonville Center
07:56AM 28.2825 -86.5906 289° West 444 511 30,000  Level Jacksonville Center
07:57AM 28.3225 -86.7217 289° West 449 517 30,000  Level Jacksonville Center
07:58AM 28.3622 -86.8575 288° West 442 509 30,000  Level Jacksonville Center
07:59AM 28.3997 -86.9889 288° West 440 506 30,000  Level Jacksonville Center
08:00AM 28.4411 -87.1250 289° West 450 518 30,000  Level Jacksonville Center
08:01AM 28.4744 -87.2517 287° West 442 509 30,000  Level Jacksonville Center
08:04AM 28.5661 -87.5669 288° West 440 506 30,000  Level Houston Center
08:05AM 28.6011 -87.6958 287° West 441 507 30,000  Level Houston Center
08:06AM 28.6381 -87.8306 287° West 446 513 30,000  Level Houston Center
08:07AM 28.6758 -87.9644 288° West 445 512 30,000  Level Houston Center
08:08AM 28.7181 -88.1125 288° West 442 509 30,000  Level Houston Center
08:09AM 28.7672 -88.2411 294° West 446 513 30,000  Level Houston Center
08:10AM 28.8389 -88.3561 305° West 448 516 30,000  Level Houston Center
08:11AM 28.9083 -88.4739 304° West 447 514 30,000  Level Houston Center
08:12AM 28.9808 -88.5889 306° West 447 514 30,000  Level Houston Center
08:13AM 29.0653 -88.7278 305° West 445 512 30,000  Level Houston Center
08:14AM 29.1358 -88.8461 304° West 447 514 30,000  Level Houston Center
08:15AM 29.2061 -88.9628 305° West 446 513 30,000  Level Houston Center
08:16AM 29.2769 -89.0781 305° West 444 511 30,000  Level Houston Center
08:17AM 29.3461 -89.1953 304° West 445 512 30,000  Level Houston Center
08:18AM 29.4183 -89.3119 305° West 446 513 30,000  Level Houston Center
08:19AM 29.4883 -89.4311 304° West 449 517 30,000  Level Houston Center
08:20AM 29.5589 -89.5497 304° West 449 517 30,000  Level Houston Center
08:21AM 29.6297 -89.6658 305° West 443 510 30,000  Level Houston Center
08:22AM 29.7142 -89.8092 304° West 450 518 30,000  Level Houston Center
08:23AM 29.7844 -89.9292 304° West 451 519 30,000  Level Houston Center
08:24AM 29.8556 -90.0486 304° West 450 518 30,000  Level Houston Center
08:25AM 29.9261 -90.1689 304° West 451 519 30,000  Level Houston Center
08:26AM 29.9958 -90.2892 304° West 451 519 30,000  Level Houston Center
08:27AM 30.0667 -90.4111 304° West 450 518 30,000  Level Houston Center
08:28AM 30.1375 -90.5297 305° West 453 521 30,000  Level Houston Center
08:29AM 30.2069 -90.6494 304° West 450 518 30,000  Level Houston Center
08:30AM 30.2756 -90.7675 304° West 444 511 30,000  Level Houston Center
08:31AM 30.3567 -90.9089 304° West 441 507 30,000  Level Houston Center
08:32AM 30.4250 -91.0272 304° West 441 507 30,000  Level Houston Center
08:33AM 30.4942 -91.1450 304° West 441 507 30,000  Level Houston Center
08:34AM 30.5617 -91.2642 303° West 443 510 30,000  Level Houston Center
08:35AM 30.6297 -91.3850 303° West 446 513 30,000  Level Houston Center
08:36AM 30.6950 -91.5006 303° West 433 498 30,000  Level Houston Center
08:37AM 30.7622 -91.6208 303° West 441 507 30,000  Level Houston Center
08:38AM 30.8436 -91.7636 304° West 442 509 30,000  Level Houston Center
08:39AM 30.9108 -91.8819 304° West 439 505 30,000  Level Houston Center
08:40AM 30.9764 -91.9997 303° West 434 499 30,000  Level Houston Center
08:42AM 31.0425 -92.1189 303° West 434 499 30,000  Level Houston Center
08:43AM 31.1089 -92.2383 303° West 438 504 30,000  Level Houston Center
08:44AM 31.1767 -92.3586 303° West 441 507 30,000  Level Houston Center
08:45AM 31.2442 -92.4792 303° West 443 510 30,000  Level Houston Center
08:46AM 31.2683 -92.6144 282° West 439 505 30,000 420 Level Houston Center
08:47AM 31.2850 -92.7767 277° West 427 491 30,900 1,320 Climbing Houston Center
08:48AM 31.2983 -92.9081 277° West 416 479 32,800 1,920 Climbing Houston Center
08:49AM 31.3106 -93.0367 276° West 405 466 34,900 2,220 Climbing Houston Center
08:50AM 31.3236 -93.1567 277° West 384 442 37,500 1,500 Climbing Houston Center
08:51AM 31.3353 -93.2803 276° West 356 410 38,000 240 Climbing Houston Center
08:52AM 31.3469 -93.3972 277° West 362 417 38,000  Level Houston Center
08:53AM 31.3578 -93.5175 276° West 371 427 38,000  Level Houston Center
08:54AM 31.3714 -93.6508 277° West 369 425 38,000  Level Houston Center
08:55AM 31.3836 -93.7708 277° West 371 427 38,000  Level Houston Center
08:56AM 31.3939 -93.8908 276° West 370 426 38,000  Level Houston Center
08:56AM 31.3994 -93.9381 278° West 368 423 38,000  Level Fort Worth Center
08:57AM 31.4108 -94.0569 276° West 368 423 38,000  Level Fort Worth Center
08:58AM 31.4203 -94.1806 275° West 368 423 38,000  Level Fort Worth Center
08:59AM 31.4339 -94.2969 278° West 368 423 38,000  Level Fort Worth Center
09:00AM 31.4431 -94.4183 275° West 368 423 38,000  Level Fort Worth Center
09:01AM 31.4539 -94.5350 276° West 368 423 38,000  Level Fort Worth Center
09:02AM 31.4617 -94.6269 276° West 365 420 38,000  Level Houston Center
09:03AM 31.4722 -94.7433 276° West 364 419 38,000  Level Houston Center
09:04AM 31.4844 -94.8897 276° West 368 423 38,000  Level Fort Worth Center
09:05AM 31.4931 -95.0039 275° West 368 423 38,000  Level Fort Worth Center
09:06AM 31.5017 -95.1231 275° West 368 423 38,000  Level Fort Worth Center
09:07AM 31.5119 -95.2397 276° West 368 423 38,000  Level Fort Worth Center
09:08AM 31.5242 -95.3517 277° West 362 417 38,000  Level Fort Worth Center
09:09AM 31.5325 -95.4683 275° West 362 417 38,000  Level Fort Worth Center
09:10AM 31.5381 -95.5731 274° West 362 417 38,000  Level Fort Worth Center
09:11AM 31.5503 -95.6897 277° West 370 426 38,000  Level Fort Worth Center
09:12AM 31.5581 -95.8092 274° West 370 426 38,000  Level Fort Worth Center
09:13AM 31.5678 -95.9236 276° West 365 420 38,000  Level Fort Worth Center
09:14AM 31.5775 -96.0428 276° West 365 420 38,000  Level Fort Worth Center
09:15AM 31.5869 -96.1597 275° West 365 420 38,000  Level Fort Worth Center
09:16AM 31.5967 -96.2817 275° West 370 426 38,000  Level Fort Worth Center
09:17AM 31.6039 -96.4083 274° West 365 420 38,000  Level Fort Worth Center
09:18AM 31.6131 -96.5278 275° West 365 420 38,000  Level Fort Worth Center
09:19AM 31.6411 -96.6350 287° West 363 418 38,000  Level Fort Worth Center
09:20AM 31.6833 -96.7492 294° West 368 423 38,000  Level Fort Worth Center
09:21AM 31.7278 -96.8564 296° West 368 423 38,000  Level Fort Worth Center
09:22AM 31.7700 -96.9661 294° West 374 430 38,000  Level Fort Worth Center
09:23AM 31.8119 -97.0761 294° West 374 430 38,000  Level Fort Worth Center
09:24AM 31.8542 -97.1883 294° West 373 429 38,000  Level Fort Worth Center
09:25AM 31.8981 -97.3008 295° West 373 429 38,000  Level Fort Worth Center
09:26AM 31.9397 -97.4108 294° West 378 435 38,000  Level Fort Worth Center
09:27AM 31.9731 -97.5114 291° West 378 435 38,000  Level Fort Worth Center
09:28AM 32.0211 -97.6389 294° West 373 429 38,000  Level Fort Worth Center
09:29AM 32.0647 -97.7542 294° West 378 435 38,000  Level Fort Worth Center
09:30AM 32.1206 -97.8575 303° West 378 435 38,000  Level Fort Worth Center
09:31AM 32.1828 -97.9633 305° West 388 447 38,000  Level Fort Worth Center
09:32AM 32.2658 -98.0547 317° Northwest 395 455 38,000  Level Fort Worth Center
09:33AM 32.3406 -98.1486 313° West 400 460 38,000  Level Fort Worth Center
09:34AM 32.3628 -98.2644 283° West 368 423 38,000  Level Fort Worth Center
09:35AM 32.3828 -98.3828 281° West 368 423 38,000  Level Fort Worth Center
09:36AM 32.3925 -98.4861 276° West 362 417 38,000  Level Fort Worth Center
09:37AM 32.4019 -98.5969 276° West 356 410 38,000  Level Fort Worth Center
09:38AM 32.4319 -98.7131 287° West 356 410 38,000  Level Fort Worth Center
09:39AM 32.4683 -98.8367 289° West 361 415 38,000  Level Fort Worth Center
09:40AM 32.5128 -98.9556 294° West 374 430 38,000  Level Fort Worth Center
09:41AM 32.5472 -99.0500 293° West 379 436 38,000  Level Fort Worth Center
09:42AM 32.5914 -99.1764 293° West 379 436 38,000  Level Fort Worth Center
09:43AM 32.6356 -99.2933 294° West 384 442 38,000  Level Fort Worth Center
09:44AM 32.6775 -99.4150 292° West 384 442 38,000  Level Fort Worth Center
09:45AM 32.7214 -99.5297 294° West 384 442 38,000  Level Fort Worth Center
09:46AM 32.7672 -99.6617 292° West 389 448 38,000  Level Fort Worth Center
09:47AM 32.8153 -99.7789 296° West 389 448 38,000  Level Fort Worth Center
09:48AM 32.8483 -99.9036 288° West 395 455 38,000  Level Fort Worth Center
09:49AM 32.8769 -100.0281 285° West 395 455 38,000  Level Fort Worth Center
09:50AM 32.9078 -100.1478 287° West 390 449 38,000  Level Fort Worth Center
09:51AM 32.9406 -100.2675 288° West 384 442 38,000  Level Fort Worth Center
09:52AM 32.9711 -100.3897 287° West 384 442 38,000  Level Fort Worth Center
09:53AM 33.0017 -100.5072 287° West 384 442 38,000  Level Fort Worth Center
09:54AM 33.0342 -100.6297 288° West 384 442 38,000  Level Fort Worth Center
09:55AM 33.0644 -100.7497 287° West 384 442 38,000  Level Fort Worth Center
09:56AM 33.0947 -100.8700 287° West 384 442 38,000  Level Fort Worth Center
09:57AM 33.1267 -100.9903 288° West 384 442 38,000  Level Fort Worth Center
09:58AM 33.1569 -101.0981 289° West 384 442 38,000  Level Fort Worth Center
09:59AM 33.1883 -101.2311 286° West 384 442 38,000  Level Fort Worth Center
10:00AM 33.2225 -101.3467 289° West 389 448 38,000  Level Fort Worth Center
10:01AM 33.2533 -101.4872 285° West 401 461 38,000  Level Fort Worth Center
10:02AM 33.2831 -101.6053 287° West 408 470 38,000  Level Fort Worth Center
10:03AM 33.3178 -101.7486 286° West 403 464 38,000  Level Fort Worth Center
10:04AM 33.3506 -101.8819 286° West 408 470 38,000  Level Fort Worth Center
10:05AM 33.3833 -102.0131 287° West 408 470 38,000  Level Fort Worth Center
10:06AM 33.4161 -102.1467 286° West 413 475 38,000  Level Fort Worth Center
10:07AM 33.4447 -102.2675 286° West 418 481 38,000  Level Fort Worth Center
10:08AM 33.4808 -102.4142 286° West 418 481 38,000  Level Fort Worth Center
10:09AM 33.5094 -102.5278 287° West 418 481 38,000  Level Fort Worth Center
10:10AM 33.5450 -102.6769 286° West 426 490 38,000  Level Fort Worth Center
10:11AM 33.5753 -102.8008 286° West 426 490 38,000  Level Fort Worth Center
10:13AM 33.6222 -102.9894 287° West 427 491 38,000  Level Albuquerque Center
10:14AM 33.6542 -103.1244 286° West 425 489 38,000  Level Albuquerque Center
10:15AM 33.6856 -103.2594 286° West 423 487 38,000  Level Albuquerque Center
10:16AM 33.7239 -103.4203 286° West 420 483 38,000  Level Albuquerque Center
10:17AM 33.7547 -103.5575 285° West 423 487 38,000  Level Albuquerque Center
10:18AM 33.7875 -103.6997 286° West 423 487 38,000  Level Albuquerque Center
10:19AM 33.8211 -103.8447 286° West 421 484 38,000  Level Albuquerque Center
10:20AM 33.8519 -103.9797 285° West 420 483 38,000  Level Albuquerque Center
10:21AM 33.8833 -104.1158 286° West 423 487 38,000  Level Albuquerque Center
10:22AM 33.9156 -104.2631 285° West 423 487 38,000  Level Albuquerque Center
10:23AM 33.9472 -104.3983 286° West 422 486 38,000  Level Albuquerque Center
10:24AM 33.9775 -104.5339 285° West 421 484 38,000  Level Albuquerque Center
10:25AM 34.0097 -104.6800 285° West 421 484 38,000  Level Albuquerque Center
10:26AM 34.0403 -104.8103 286° West 423 487 38,000  Level Albuquerque Center
10:27AM 34.0719 -104.9506 285° West 427 491 38,000  Level Albuquerque Center
10:28AM 34.1019 -105.0939 284° West 434 499 38,000  Level Albuquerque Center
10:29AM 34.1336 -105.2331 285° West 428 493 38,000  Level Albuquerque Center
10:30AM 34.1622 -105.3706 284° West 422 486 38,000  Level Albuquerque Center
10:31AM 34.1950 -105.5303 284° West 419 482 38,000  Level Albuquerque Center
10:32AM 34.2231 -105.6664 284° West 416 479 38,000  Level Albuquerque Center
10:33AM 34.2533 -105.8042 285° West 417 480 38,000  Level Albuquerque Center
10:34AM 34.2811 -105.9386 284° West 413 475 38,000  Level Albuquerque Center
10:35AM 34.3133 -106.0775 286° West 418 481 38,000  Level Albuquerque Center
10:36AM 34.3419 -106.2142 284° West 418 481 38,000 240 Level Albuquerque Center
10:37AM 34.3697 -106.3636 283° West 424 488 38,500 480 Climbing Albuquerque Center
10:38AM 34.4000 -106.5042 285° West 428 493 39,100 720 Climbing Albuquerque Center
10:39AM 34.4306 -106.6469 285° West 432 497 40,000 420 Climbing Albuquerque Center
10:40AM 34.4589 -106.7889 284° West 434 499 40,000  Level Albuquerque Center
10:41AM 34.4875 -106.9342 283° West 439 505 40,000  Level Albuquerque Center
10:42AM 34.5167 -107.0778 284° West 439 505 40,000  Level Albuquerque Center
10:44AM 34.5450 -107.2219 283° West 436 502 40,000  Level Albuquerque Center
10:45AM 34.5731 -107.3636 284° West 434 499 40,000  Level Albuquerque Center
10:46AM 34.6072 -107.5358 284° West 435 501 40,000  Level Albuquerque Center
10:47AM 34.6358 -107.6789 284° West 434 499 40,000  Level Albuquerque Center
10:48AM 34.6633 -107.8219 283° West 434 499 40,000  Level Albuquerque Center
10:49AM 34.6908 -107.9656 283° West 436 502 40,000  Level Albuquerque Center
10:50AM 34.7194 -108.1097 284° West 437 503 40,000  Level Albuquerque Center
10:51AM 34.7467 -108.2522 283° West 435 501 40,000  Level Albuquerque Center
10:52AM 34.7744 -108.3981 283° West 439 505 40,000  Level Albuquerque Center
10:53AM 34.8064 -108.5672 283° West 436 502 40,000  Level Albuquerque Center
10:54AM 34.8322 -108.7061 283° West 438 504 40,000  Level Albuquerque Center
10:55AM 34.8617 -108.8664 283° West 435 501 40,000  Level Albuquerque Center
10:56AM 34.8875 -109.0053 283° West 436 502 40,000  Level Albuquerque Center
10:57AM 34.9175 -109.1661 283° West 436 502 40,000  Level Albuquerque Center
10:58AM 34.9419 -109.3028 282° West 432 497 40,000  Level Albuquerque Center
10:59AM 34.9667 -109.4392 283° West 431 496 40,000  Level Albuquerque Center
11:00AM 34.9947 -109.5983 282° West 429 494 40,000  Level Albuquerque Center
11:01AM 35.0189 -109.7378 282° West 433 498 40,000  Level Albuquerque Center
11:02AM 35.0483 -109.9014 282° West 439 505 40,000  Level Albuquerque Center
11:03AM 35.0731 -110.0417 282° West 439 505 40,000  Level Albuquerque Center
11:04AM 35.1014 -110.2061 282° West 443 510 40,000  Level Albuquerque Center
11:05AM 35.1242 -110.3447 281° West 439 505 40,000  Level Albuquerque Center
11:06AM 35.1456 -110.4822 281° West 433 498 40,000 -300 Level Albuquerque Center
11:07AM 35.1731 -110.6442 282° West 433 498 39,400 -780 Descending Albuquerque Center
11:08AM 35.1953 -110.7797 281° West 430 495 38,400 -1,020 Descending Albuquerque Center
11:09AM 35.2211 -110.9397 281° West 430 495 37,400 -960 Descending Albuquerque Center
11:10AM 35.2431 -111.0797 281° West 434 499 36,500 -900 Descending Albuquerque Center
11:11AM 35.2664 -111.2181 282° West 440 506 35,600 -1,320 Descending Albuquerque Center
11:12AM 35.2972 -111.3981 282° West 448 516 33,900 -1,980 Descending Albuquerque Center
11:13AM 35.3206 -111.5433 281° West 439 505 31,600 -1,920 Descending Albuquerque Center
11:14AM 35.3425 -111.6831 281° West 426 490 30,000 -780 Descending Albuquerque Center
11:15AM 35.3644 -111.8161 281° West 411 473 30,000  Level Albuquerque Center
11:17AM 35.3856 -111.9522 281° West 408 470 30,000  Level Albuquerque Center
11:18AM 35.4078 -112.0969 281° West 426 490 30,000  Level Albuquerque Center
11:18AM 35.4172 -112.1558 281° West 434 499 30,000  Level Los Angeles Center
11:19AM 35.4347 -112.2706 281° West 434 499 30,000  Level Albuquerque Center
11:20AM 35.4575 -112.4142 281° West 433 498 30,000  Level Albuquerque Center
11:20AM 35.4619 -112.4433 281° West 432 497 30,000  Level Los Angeles Center
11:21AM 35.4842 -112.5861 281° West 432 497 30,000 -360 Level Los Angeles Center
11:22AM 35.5094 -112.7539 281° West 420 483 29,300 -840 Descending Los Angeles Center
11:23AM 35.5306 -112.9022 280° West 435 501 28,300 -960 Descending Los Angeles Center
11:24AM 35.5503 -113.0347 280° West 426 490 27,400 -1,020 Descending Los Angeles Center
11:25AM 35.5750 -113.2003 280° West 412 474 26,200 -1,080 Descending Los Angeles Center
11:26AM 35.5950 -113.3372 280° West 414 476 25,200 -1,020 Descending Los Angeles Center
11:27AM 35.6150 -113.4756 280° West 415 478 24,200 -1,020 Descending Los Angeles Center
11:28AM 35.6344 -113.6142 280° West 407 468 23,200 -1,140 Descending Los Angeles Center
11:29AM 35.6528 -113.7419 280° West 396 456 21,900 -1,740 Descending Los Angeles Center
11:30AM 35.6703 -113.8708 280° West 387 445 19,700 -2,280 Descending Los Angeles Center
11:31AM 35.6917 -114.0175 280° West 368 423 17,300 -2,280 Descending Los Angeles Center
11:32AM 35.7106 -114.1436 280° West 375 432 15,000 -2,340 Descending Los Angeles Center
11:33AM 35.7194 -114.1953 282° West 384 442 14,000 -2,280 Descending Los Angeles Center
11:33AM 35.7269 -114.2742 277° West 371 427 12,700 -1,620 Descending Los Angeles Center
11:34AM 35.7361 -114.3358 280° West 363 418 12,200 -600 Descending Los Angeles Center
11:34AM 35.7486 -114.3839 288° West 333 383 12,100 -240 Descending Los Angeles Center
11:35AM 35.7831 -114.3994 340° North 288 331 12,000 -120 Descending Los Angeles Center
11:35AM 35.8142 -114.4289 322° Northwest 274 315 12,000  Level Los Angeles Center
11:36AM 35.8228 -114.4711 284° West 290 334 12,000  Level Los Angeles Center
11:36AM 35.8075 -114.5281 252° West 298 343 12,000  Level Los Angeles Center
11:37AM 35.7939 -114.5739 250° West 318 366 12,000  Level Los Angeles Center
11:37AM 35.7714 -114.6303 244° Southwest 319 367 12,000  Level Los Angeles Center
11:38AM 35.7533 -114.6831 247° West 322 371 12,000  Level Los Angeles Center
11:38AM 35.7275 -114.7519 245° Southwest 324 373 12,000 -300 Level Los Angeles Center
11:39AM 35.7147 -114.7914 248° West 320 368 11,700 -1,020 Descending Los Angeles Center
11:40AM 35.7100 -114.8553 265° West 309 356 11,000 -1,140 Descending Los Angeles Center
11:40AM 35.7072 -114.8944 265° West 299 344 10,600 -1,020 Descending Los Angeles Center
11:41AM 35.7044 -114.9547 267° West 298 343 10,000 -540 Descending Los Angeles Center
11:41AM 35.7008 -115.0028 265° West 294 338 10,000 -780 Level Los Angeles Center
11:42AM 35.7014 -115.0542 271° West 293 337 9,200 -1,140 Descending Los Angeles Center
11:42AM 35.7050 -115.0914 277° West 284 327 9,000 -720 Descending Los Angeles Center
11:43AM 35.7081 -115.1478 274° West 287 330 8,500 -600 Descending Los Angeles Center
11:44AM 35.7172 -115.2336 278° West 273 314 8,000 -240 Descending Los Angeles Center
11:45AM 35.7536 -115.2889 309° West 245 282 8,100 -360 Climbing Los Angeles Center
11:46AM 35.8197 -115.3144 343° North 225 259 7,300 -720 Descending Los Angeles Center
11:46AM 35.8344 -115.3086 18° North 229 264 7,200 -300 Descending Los Angeles Center
11:47AM 35.8761 -115.2833 26° Northeast 224 258 7,000 -840 Descending Los Angeles Center
11:48AM 35.9292 -115.2533 25° Northeast 219 252 5,700 -960 Descending Los Angeles Center
11:49AM 35.9842 -115.2214 25° Northeast 212 244 5,100 -1,140 Descending Los Angeles Center
11:50AM 36.0208 -115.2022 23° Northeast 171 197 3,500 -1,200 Descending Los Angeles Center
11:51AM 36.0483 -115.1839 28° Northeast 144 166 2,900 -840 Descending Los Angeles Center
11:51AM 36.0631 -115.1778 19° North 149 171 2,600 -780 Descending Los Angeles Center
11:52AM 36.0894 -115.1614 27° Northeast 134 154 2,100 -300 Descending Los Angeles Center
11:53AM 36.1181 -115.1447 25° Northeast 125 144 2,100  Level Los Angeles Center